createdAt,value
2019-02-28T00:02:22.396Z,22.00
2019-02-28T00:04:50.464Z,23.17
2019-02-28T00:07:20.141Z,21.93
2019-02-28T00:09:49.809Z,22.00
2019-02-28T00:12:19.493Z,23.87
2019-02-28T00:14:49.110Z,22.90
2019-02-28T00:17:18.748Z,23.40
2019-02-28T00:19:48.360Z,22.17
2019-02-28T00:22:18.389Z,23.70
2019-02-28T00:24:48.981Z,24.90
2019-02-28T00:27:22.027Z,24.90
2019-02-28T00:29:49.949Z,25.50
2019-02-28T00:32:21.449Z,26.30
2019-02-28T00:34:50.916Z,26.80
2019-02-28T00:37:20.542Z,26.53
2019-02-28T00:39:50.185Z,28.97
2019-02-28T00:42:20.143Z,28.60
2019-02-28T00:44:49.796Z,28.50
2019-02-28T00:47:19.408Z,29.50
2019-02-28T00:49:49.064Z,31.07
2019-02-28T00:52:19.744Z,31.37
2019-02-28T00:54:49.376Z,31.73
2019-02-28T00:57:19.000Z,29.70
2019-02-28T00:59:48.656Z,32.23
2019-02-28T01:02:18.706Z,30.70
2019-02-28T01:04:48.472Z,30.90
2019-02-28T01:07:18.196Z,32.83
2019-02-28T01:09:47.865Z,31.77
2019-02-28T01:12:19.403Z,32.43
2019-02-28T01:14:48.885Z,32.20
2019-02-28T01:17:18.532Z,32.30
2019-02-28T01:19:48.151Z,32.03
2019-02-28T01:22:17.780Z,33.73
2019-02-28T01:24:47.401Z,33.10
2019-02-28T01:27:17.365Z,34.00
2019-02-28T01:29:48.359Z,32.40
2019-02-28T01:32:18.001Z,32.47
2019-02-28T01:34:47.632Z,34.43
2019-02-28T01:37:17.256Z,31.30
2019-02-28T01:39:46.874Z,32.90
2019-02-28T01:42:19.995Z,31.80
2019-02-28T01:44:47.808Z,31.47
2019-02-28T01:47:19.991Z,30.90
2019-02-28T01:49:48.749Z,33.27
2019-02-28T01:52:18.372Z,33.50
2019-02-28T01:54:47.985Z,31.77
2019-02-28T01:57:17.610Z,32.40
2019-02-28T01:59:47.224Z,34.20
2019-02-28T02:02:17.243Z,33.83
2019-02-28T02:04:47.037Z,32.20
2019-02-28T02:07:16.650Z,32.63
2019-02-28T02:09:46.958Z,31.20
2019-02-28T02:12:16.756Z,34.50
2019-02-28T02:14:46.395Z,32.50
2019-02-28T02:17:16.003Z,33.27
2019-02-28T02:19:45.695Z,33.73
2019-02-28T02:22:15.307Z,32.90
2019-02-28T02:24:44.926Z,31.20
2019-02-28T02:27:16.324Z,32.13
2019-02-28T02:29:46.248Z,33.13
2019-02-28T02:32:15.872Z,32.43
2019-02-28T02:34:45.493Z,32.20
2019-02-28T02:37:15.130Z,33.63
2019-02-28T02:39:44.755Z,33.83
2019-02-28T02:42:14.364Z,33.43
2019-02-28T02:44:43.965Z,35.47
2019-02-28T02:47:13.661Z,32.10
2019-02-28T02:49:43.277Z,35.60
2019-02-28T02:52:12.901Z,36.30
2019-02-28T02:54:42.499Z,36.27
2019-02-28T02:57:13.955Z,35.20
2019-02-28T03:00:02.692Z,35.07
2019-02-28T03:02:34.339Z,32.70
2019-02-28T03:05:04.830Z,34.97
2019-02-28T03:07:34.480Z,35.90
2019-02-28T03:10:04.687Z,35.77
2019-02-28T03:12:34.316Z,36.00
2019-02-28T03:15:04.225Z,35.00
2019-02-28T03:17:33.848Z,36.70
2019-02-28T03:20:07.391Z,35.43
2019-02-28T03:22:34.880Z,35.17
2019-02-28T03:25:05.171Z,34.93
2019-02-28T03:27:34.796Z,34.80
2019-02-28T03:30:05.311Z,35.10
2019-02-28T03:32:41.964Z,36.87
2019-02-28T03:35:06.461Z,37.27
2019-02-28T03:37:36.112Z,36.70
2019-02-28T03:40:06.333Z,36.43
2019-02-28T03:42:35.950Z,36.83
2019-02-28T03:45:06.677Z,35.50
2019-02-28T03:47:37.385Z,36.03
2019-02-28T03:50:07.385Z,38.30
2019-02-28T03:52:42.260Z,38.93
2019-02-28T03:55:09.456Z,37.23
2019-02-28T03:57:39.160Z,36.93
2019-02-28T04:00:14.665Z,35.87
2019-02-28T04:02:44.360Z,38.30
2019-02-28T04:05:13.981Z,36.83
2019-02-28T04:07:43.601Z,36.50
2019-02-28T04:10:16.619Z,38.50
2019-02-28T04:12:46.834Z,36.90
2019-02-28T04:15:16.460Z,36.00
2019-02-28T04:17:46.126Z,35.80
2019-02-28T04:20:15.914Z,36.57
2019-02-28T04:22:47.581Z,37.30
2019-02-28T04:25:23.002Z,36.87
2019-02-28T04:27:48.877Z,39.00
2019-02-28T04:30:18.542Z,37.87
2019-02-28T04:32:48.217Z,38.07
2019-02-28T04:35:24.353Z,37.60
2019-02-28T04:37:49.185Z,37.83
2019-02-28T04:40:24.051Z,39.90
2019-02-28T04:42:53.268Z,38.73
2019-02-28T04:45:23.344Z,38.03
2019-02-28T04:47:54.264Z,39.40
2019-02-28T04:50:24.131Z,38.50
2019-02-28T04:52:53.756Z,39.70
2019-02-28T04:55:23.374Z,37.97
2019-02-28T04:57:52.995Z,39.30
2019-02-28T05:00:22.600Z,38.90
2019-02-28T05:02:54.887Z,40.07
2019-02-28T05:05:23.752Z,35.17
2019-02-28T05:07:53.359Z,40.20
2019-02-28T05:10:23.076Z,38.23
2019-02-28T05:12:53.195Z,39.93
2019-02-28T05:15:23.225Z,37.00
2019-02-28T05:17:53.134Z,39.13
2019-02-28T05:20:24.151Z,38.30
2019-02-28T05:22:54.085Z,35.90
2019-02-28T05:25:23.717Z,38.93
2019-02-28T05:27:53.349Z,39.70
2019-02-28T05:30:22.968Z,39.47
2019-02-28T05:32:52.605Z,37.97
2019-02-28T05:35:25.470Z,40.73
2019-02-28T05:37:53.610Z,39.80
2019-02-28T05:40:24.472Z,37.57
2019-02-28T05:42:54.730Z,38.53
2019-02-28T05:45:25.412Z,36.67
2019-02-28T05:47:55.072Z,38.70
2019-02-28T05:50:24.671Z,40.10
2019-02-28T05:52:54.277Z,30.97
2019-02-28T05:55:25.568Z,39.00
2019-02-28T05:57:56.277Z,39.33
2019-02-28T06:00:26.204Z,43.00
2019-02-28T06:02:58.079Z,40.73
2019-02-28T06:05:27.122Z,41.07
2019-02-28T06:07:56.730Z,40.80
2019-02-28T06:10:26.422Z,40.00
2019-02-28T06:12:57.054Z,42.83
2019-02-28T06:15:28.893Z,43.23
2019-02-28T06:17:57.961Z,43.63
2019-02-28T06:20:27.590Z,44.50
2019-02-28T06:22:57.199Z,42.33
2019-02-28T06:25:26.818Z,41.53
2019-02-28T06:27:56.437Z,42.00
2019-02-28T06:30:27.838Z,42.20
2019-02-28T06:32:59.086Z,42.10
2019-02-28T06:35:28.968Z,43.93
2019-02-28T06:37:58.589Z,42.47
2019-02-28T06:40:32.579Z,43.57
2019-02-28T06:43:00.157Z,43.83
2019-02-28T06:45:30.273Z,45.00
2019-02-28T06:47:59.888Z,44.70
2019-02-28T06:50:29.590Z,42.77
2019-02-28T06:53:00.282Z,45.27
2019-02-28T06:55:29.914Z,45.27
2019-02-28T06:57:59.822Z,46.77
2019-02-28T07:00:29.606Z,45.97
2019-02-28T07:02:59.231Z,45.67
2019-02-28T07:05:28.912Z,43.57
2019-02-28T07:07:58.534Z,43.83
2019-02-28T07:10:28.538Z,43.00
2019-02-28T07:12:58.222Z,44.93
2019-02-28T07:15:27.837Z,46.20
2019-02-28T07:17:57.456Z,46.80
2019-02-28T07:20:27.084Z,46.83
2019-02-28T07:22:56.689Z,50.70
2019-02-28T07:25:26.303Z,49.53
2019-02-28T07:27:55.999Z,51.33
2019-02-28T07:30:25.612Z,50.77
2019-02-28T07:32:55.273Z,49.20
2019-02-28T07:35:25.272Z,51.40
2019-02-28T07:37:55.217Z,47.90
2019-02-28T07:40:25.174Z,51.63
2019-02-28T07:42:54.801Z,50.97
2019-02-28T07:45:24.860Z,53.43
2019-02-28T07:47:54.820Z,51.20
2019-02-28T07:50:33.773Z,52.50
2019-02-28T07:53:05.638Z,52.00
2019-02-28T07:55:35.491Z,52.13
2019-02-28T07:58:05.617Z,52.70
2019-02-28T08:00:35.294Z,51.27
2019-02-28T08:03:05.037Z,48.60
2019-02-28T08:05:35.017Z,49.80
2019-02-28T08:08:05.144Z,50.50
2019-02-28T08:10:34.857Z,52.50
2019-02-28T08:13:04.558Z,50.03
2019-02-28T08:15:34.435Z,51.80
2019-02-28T08:18:05.777Z,48.20
2019-02-28T08:20:35.617Z,48.17
2019-02-28T08:23:05.226Z,48.67
2019-02-28T08:25:36.280Z,47.17
2019-02-28T08:28:05.888Z,48.77
2019-02-28T08:30:35.897Z,47.03
2019-02-28T08:33:05.712Z,47.30
2019-02-28T08:35:35.935Z,46.10
2019-02-28T08:38:06.883Z,45.40
2019-02-28T08:40:36.646Z,46.60
2019-02-28T08:43:07.324Z,43.07
2019-02-28T08:45:36.925Z,41.20
2019-02-28T08:48:06.981Z,43.33
2019-02-28T08:50:36.872Z,40.23
2019-02-28T08:53:06.573Z,39.20
2019-02-28T08:55:38.302Z,37.80
2019-02-28T08:58:08.490Z,37.50
2019-02-28T09:00:38.176Z,39.17
2019-02-28T09:03:07.888Z,38.90
2019-02-28T09:05:37.561Z,37.70
2019-02-28T09:08:07.197Z,37.33
2019-02-28T09:10:37.494Z,36.20
2019-02-28T09:13:08.692Z,35.57
2019-02-28T09:15:38.680Z,36.10
2019-02-28T09:18:08.296Z,33.10
2019-02-28T09:20:38.201Z,34.13
2019-02-28T09:23:07.841Z,30.03
2019-02-28T09:25:37.448Z,26.90
2019-02-28T09:28:07.093Z,25.67
2019-02-28T09:30:38.604Z,24.57
2019-02-28T09:33:08.236Z,25.03
2019-02-28T09:35:37.876Z,23.00
2019-02-28T09:38:13.213Z,23.03
2019-02-28T09:40:41.187Z,22.47
2019-02-28T09:43:11.221Z,20.20
2019-02-28T09:45:41.213Z,19.57
2019-02-28T09:48:10.968Z,20.70
2019-02-28T09:50:40.596Z,20.07
2019-02-28T09:53:15.525Z,21.43
2019-02-28T09:55:41.617Z,21.30
2019-02-28T09:58:11.223Z,20.33
2019-02-28T10:00:43.326Z,20.57
2019-02-28T10:03:15.386Z,20.50
2019-02-28T10:05:43.665Z,21.00
2019-02-28T10:08:13.274Z,20.53
2019-02-28T10:10:42.906Z,22.33
2019-02-28T10:13:14.539Z,21.70
2019-02-28T10:15:43.857Z,21.20
2019-02-28T10:18:13.766Z,23.07
2019-02-28T10:20:43.453Z,21.77
2019-02-28T10:23:14.084Z,24.20
2019-02-28T10:25:43.802Z,22.70
2019-02-28T10:28:13.866Z,23.53
2019-02-28T10:30:43.648Z,20.53
2019-02-28T10:33:14.316Z,24.50
2019-02-28T10:35:44.599Z,21.80
2019-02-28T10:38:14.228Z,21.97
2019-02-28T10:40:43.902Z,20.10
2019-02-28T10:43:15.465Z,23.37
2019-02-28T10:45:46.095Z,19.73
2019-02-28T10:48:15.944Z,19.10
2019-02-28T10:50:45.616Z,19.83
2019-02-28T10:53:15.268Z,21.60
2019-02-28T10:55:44.944Z,21.50
2019-02-28T10:58:15.483Z,22.13
2019-02-28T11:00:46.192Z,20.43
2019-02-28T11:03:16.172Z,21.10
2019-02-28T11:05:46.728Z,20.70
2019-02-28T11:08:19.182Z,20.13
2019-02-28T11:10:48.420Z,18.50
2019-02-28T11:13:18.765Z,19.00
2019-02-28T11:15:49.377Z,17.80
2019-02-28T11:18:19.353Z,18.67
2019-02-28T11:20:49.032Z,19.10
2019-02-28T11:23:19.079Z,19.60
2019-02-28T11:25:48.766Z,18.20
2019-02-28T11:28:19.384Z,18.47
2019-02-28T11:30:49.716Z,19.23
2019-02-28T11:33:22.762Z,19.60
2019-02-28T11:35:54.290Z,17.63
2019-02-28T11:38:22.923Z,16.30
2019-02-28T11:40:57.252Z,16.57
2019-02-28T11:43:26.729Z,17.23
2019-02-28T11:45:56.517Z,16.33
2019-02-28T11:48:27.731Z,16.40
2019-02-28T11:50:57.431Z,16.07
2019-02-28T11:53:27.140Z,16.70
2019-02-28T11:55:56.774Z,17.60
2019-02-28T11:58:26.391Z,14.93
2019-02-28T12:00:56.089Z,15.50
2019-02-28T12:03:25.694Z,17.27
2019-02-28T12:05:55.392Z,15.57
2019-02-28T12:08:25.316Z,16.00
2019-02-28T12:10:54.926Z,17.10
2019-02-28T12:13:24.609Z,17.57
2019-02-28T12:15:54.240Z,17.43
2019-02-28T12:18:23.846Z,15.77
2019-02-28T12:20:53.625Z,14.40
2019-02-28T12:23:24.335Z,15.87
2019-02-28T12:25:54.232Z,15.20
2019-02-28T12:28:23.851Z,14.43
2019-02-28T12:30:53.467Z,15.60
2019-02-28T12:33:23.560Z,16.57
2019-02-28T12:35:54.721Z,16.53
2019-02-28T12:38:28.933Z,14.30
2019-02-28T12:40:57.092Z,16.37
2019-02-28T12:43:26.724Z,14.93
2019-02-28T12:45:56.941Z,14.03
2019-02-28T12:48:28.022Z,14.47
2019-02-28T12:50:57.805Z,16.27
2019-02-28T12:53:27.508Z,13.60
2019-02-28T12:55:57.136Z,13.37
2019-02-28T12:58:36.525Z,15.90
2019-02-28T13:01:00.043Z,15.40
2019-02-28T13:03:29.818Z,14.63
2019-02-28T13:05:59.792Z,16.90
2019-02-28T13:08:29.423Z,14.60
2019-02-28T13:11:04.380Z,14.60
2019-02-28T13:13:31.568Z,15.23
2019-02-28T13:16:01.326Z,13.83
2019-02-28T13:18:30.942Z,15.27
2019-02-28T13:21:01.045Z,13.80
2019-02-28T13:23:32.867Z,14.10
2019-02-28T13:26:02.099Z,12.17
2019-02-28T13:28:31.708Z,14.00
2019-02-28T13:31:01.460Z,13.93
2019-02-28T13:33:31.094Z,14.30
2019-02-28T13:36:00.900Z,14.63
2019-02-28T13:38:30.935Z,14.80
2019-02-28T13:41:00.924Z,14.43
2019-02-28T13:43:32.123Z,16.03
2019-02-28T13:46:01.862Z,14.50
2019-02-28T13:48:33.914Z,15.20
2019-02-28T13:51:08.162Z,17.03
2019-02-28T13:53:35.949Z,15.77
2019-02-28T13:56:05.568Z,16.20
2019-02-28T13:58:35.172Z,16.17
2019-02-28T14:01:05.884Z,15.20
2019-02-28T14:03:35.500Z,14.47
2019-02-28T14:06:06.121Z,15.40
2019-02-28T14:08:35.740Z,14.37
2019-02-28T14:11:05.814Z,13.37
2019-02-28T14:13:36.961Z,13.17
2019-02-28T14:16:06.717Z,14.40
2019-02-28T14:18:36.361Z,13.20
2019-02-28T14:21:06.345Z,13.57
2019-02-28T14:23:36.052Z,20.60
2019-02-28T14:26:06.117Z,14.63
2019-02-28T14:28:36.358Z,13.83
2019-02-28T14:31:06.208Z,13.43
2019-02-28T14:33:36.129Z,13.40
2019-02-28T14:36:07.507Z,12.83
2019-02-28T14:38:37.353Z,13.73
2019-02-28T14:41:07.081Z,13.20
2019-02-28T14:43:36.729Z,12.73
2019-02-28T14:46:06.694Z,12.90
2019-02-28T14:48:39.889Z,12.80
2019-02-28T14:51:08.695Z,14.13
2019-02-28T14:53:38.418Z,13.83
2019-02-28T14:56:08.454Z,13.80
2019-02-28T14:58:38.300Z,13.50
2019-02-28T15:01:07.938Z,12.73
2019-02-28T15:03:37.575Z,14.07
2019-02-28T15:06:07.419Z,13.67
2019-02-28T15:08:37.044Z,14.03
2019-02-28T15:11:10.307Z,14.27
2019-02-28T15:13:38.285Z,13.17
2019-02-28T15:16:08.316Z,13.60
2019-02-28T15:18:37.932Z,13.03
2019-02-28T15:21:08.333Z,13.20
2019-02-28T15:23:38.133Z,13.20
2019-02-28T15:26:08.043Z,14.20
2019-02-28T15:28:37.669Z,11.60
2019-02-28T15:31:08.678Z,15.67
2019-02-28T15:33:38.728Z,12.87
2019-02-28T15:36:09.576Z,13.10
2019-02-28T15:38:41.860Z,14.77
2019-02-28T15:41:10.932Z,12.60
2019-02-28T15:43:40.681Z,13.33
2019-02-28T15:46:12.005Z,12.80
2019-02-28T15:48:41.853Z,14.00
2019-02-28T15:51:11.544Z,13.10
2019-02-28T15:53:41.177Z,15.33
2019-02-28T15:56:13.609Z,13.43
2019-02-28T15:58:42.661Z,13.50
2019-02-28T16:01:13.993Z,13.70
2019-02-28T16:03:43.891Z,14.00
2019-02-28T16:06:16.122Z,13.57
2019-02-28T16:08:46.771Z,14.43
2019-02-28T16:11:16.584Z,13.90
2019-02-28T16:13:47.286Z,13.60
2019-02-28T16:16:16.979Z,13.13
2019-02-28T16:18:47.290Z,14.80
2019-02-28T16:21:17.656Z,13.57
2019-02-28T16:23:47.364Z,14.37
2019-02-28T16:26:18.307Z,13.80
2019-02-28T16:28:48.816Z,15.20
2019-02-28T16:31:18.826Z,14.30
2019-02-28T16:33:49.697Z,15.60
2019-02-28T16:36:22.240Z,14.13
2019-02-28T16:38:50.640Z,14.40
2019-02-28T16:41:20.268Z,22.33
2019-02-28T16:43:52.295Z,14.67
2019-02-28T16:46:21.472Z,14.60
2019-02-28T16:48:52.734Z,14.37
2019-02-28T16:51:22.600Z,15.23
2019-02-28T16:53:53.216Z,13.93
2019-02-28T16:56:22.994Z,13.70
2019-02-28T16:58:53.796Z,12.93
2019-02-28T17:01:25.593Z,13.00
2019-02-28T17:03:55.224Z,12.57
2019-02-28T17:06:24.844Z,13.03
2019-02-28T17:09:04.706Z,13.00
2019-02-28T17:11:37.573Z,13.07
2019-02-28T17:14:14.701Z,13.20
2019-02-28T17:16:55.641Z,12.87
2019-02-28T17:19:25.252Z,11.10
2019-02-28T17:21:54.882Z,11.87
2019-02-28T17:24:24.490Z,12.53
2019-02-28T17:27:10.261Z,12.33
2019-02-28T17:30:08.229Z,12.07
2019-02-28T17:32:37.891Z,11.53
2019-02-28T17:35:08.226Z,11.80
2019-02-28T17:37:38.138Z,12.83
2019-02-28T17:40:08.681Z,12.43
2019-02-28T17:42:39.809Z,11.90
2019-02-28T17:45:15.583Z,12.70
2019-02-28T17:48:15.049Z,11.07
2019-02-28T17:51:14.992Z,10.57
2019-02-28T17:54:24.821Z,12.00
2019-02-28T17:57:34.032Z,9.90
2019-02-28T18:00:24.760Z,10.00
2019-02-28T18:03:35.972Z,10.73
2019-02-28T18:06:43.708Z,10.83
2019-02-28T18:09:48.190Z,10.23
2019-02-28T18:12:58.084Z,10.43
2019-02-28T18:16:21.388Z,10.33
2019-02-28T18:19:54.309Z,10.47
2019-02-28T18:22:41.804Z,11.60
2019-02-28T18:26:08.039Z,10.90
2019-02-28T18:29:10.302Z,12.27
2019-02-28T18:31:41.932Z,11.93
2019-02-28T18:34:20.529Z,10.47
2019-02-28T18:36:49.505Z,11.70
2019-02-28T18:39:19.157Z,10.13
2019-02-28T18:41:50.680Z,11.37
2019-02-28T18:44:20.116Z,10.27
2019-02-28T18:46:49.749Z,9.90
2019-02-28T18:49:19.361Z,10.47
2019-02-28T18:51:49.991Z,10.80
2019-02-28T18:54:19.667Z,10.73
2019-02-28T18:56:49.409Z,11.50
2019-02-28T18:59:19.082Z,10.30
2019-02-28T19:01:48.777Z,11.50
2019-02-28T19:04:22.432Z,11.00
2019-02-28T19:06:52.207Z,12.20
2019-02-28T19:09:23.549Z,10.80
2019-02-28T19:11:53.189Z,11.73
2019-02-28T19:14:22.808Z,11.83
2019-02-28T19:16:52.441Z,12.53
2019-02-28T19:19:22.072Z,11.73
2019-02-28T19:21:52.013Z,12.93
2019-02-28T19:24:21.916Z,11.60
2019-02-28T19:26:51.593Z,12.07
2019-02-28T19:29:21.483Z,12.60
2019-02-28T19:31:52.265Z,10.40
2019-02-28T19:34:21.872Z,13.00
2019-02-28T19:36:51.868Z,11.67
2019-02-28T19:39:21.801Z,12.57
2019-02-28T19:41:51.428Z,11.60
2019-02-28T19:44:21.036Z,12.67
2019-02-28T19:46:50.669Z,12.07
2019-02-28T19:49:20.306Z,11.60
2019-02-28T19:51:49.932Z,13.53
2019-02-28T19:54:19.543Z,12.13
2019-02-28T19:56:49.441Z,12.70
2019-02-28T19:59:19.064Z,12.27
2019-02-28T20:01:48.700Z,11.10
2019-02-28T20:04:18.301Z,11.23
2019-02-28T20:06:47.922Z,11.60
2019-02-28T20:09:17.736Z,11.83
2019-02-28T20:11:47.669Z,10.73
2019-02-28T20:14:17.565Z,8.40
2019-02-28T20:16:47.251Z,11.03
2019-02-28T20:19:16.897Z,11.10
2019-02-28T20:21:46.516Z,10.53
2019-02-28T20:24:17.280Z,11.67
2019-02-28T20:26:46.961Z,10.87
2019-02-28T20:29:16.583Z,10.73
2019-02-28T20:31:46.188Z,11.97
2019-02-28T20:34:16.088Z,11.73
2019-02-28T20:36:45.836Z,12.20
2019-02-28T20:39:15.533Z,15.30
2019-02-28T20:41:45.204Z,11.63
2019-02-28T20:44:14.848Z,11.60
2019-02-28T20:46:44.455Z,11.60
2019-02-28T20:49:14.069Z,11.90
2019-02-28T20:51:43.673Z,11.07
2019-02-28T20:54:13.297Z,10.57
2019-02-28T20:56:42.940Z,11.37
2019-02-28T20:59:12.611Z,11.47
2019-02-28T21:01:42.241Z,11.50
2019-02-28T21:04:12.009Z,11.13
2019-02-28T21:06:41.637Z,11.27
2019-02-28T21:09:12.465Z,11.10
2019-02-28T21:11:42.285Z,12.03
2019-02-28T21:14:11.901Z,11.50
2019-02-28T21:16:41.500Z,10.40
2019-02-28T21:19:11.516Z,10.70
2019-02-28T21:21:41.129Z,11.03
2019-02-28T21:24:10.785Z,10.50
2019-02-28T21:26:40.391Z,10.67
2019-02-28T21:29:10.050Z,11.53
2019-02-28T21:31:39.649Z,9.97
2019-02-28T21:34:09.719Z,10.73
2019-02-28T21:36:39.460Z,10.53
2019-02-28T21:39:10.000Z,10.93
2019-02-28T21:41:42.805Z,10.30
2019-02-28T21:44:12.492Z,10.00
2019-02-28T21:46:42.100Z,10.30
2019-02-28T21:49:11.720Z,10.37
2019-02-28T21:51:41.332Z,10.17
2019-02-28T21:54:10.981Z,9.77
2019-02-28T21:56:41.664Z,9.83
2019-02-28T21:59:11.280Z,9.83
2019-02-28T22:01:40.890Z,9.97
2019-02-28T22:04:10.504Z,10.83
2019-02-28T22:06:40.413Z,9.17
2019-02-28T22:09:10.476Z,8.47
2019-02-28T22:11:40.336Z,8.37
2019-02-28T22:14:09.956Z,9.13
2019-02-28T22:16:39.556Z,8.83
2019-02-28T22:19:09.164Z,8.10
2019-02-28T22:21:38.760Z,8.50
2019-02-28T22:24:08.380Z,8.67
2019-02-28T22:26:38.296Z,9.03
2019-02-28T22:29:07.929Z,8.63
2019-02-28T22:31:55.500Z,8.33
2019-02-28T22:34:47.074Z,8.60
2019-02-28T22:37:16.672Z,8.60
2019-02-28T22:39:46.306Z,9.87
2019-02-28T22:42:22.062Z,9.10
2019-02-28T22:44:47.240Z,9.97
2019-02-28T22:47:16.857Z,8.80
2019-02-28T22:49:46.515Z,10.80
2019-02-28T22:52:16.196Z,9.80
2019-02-28T22:54:45.825Z,9.80
2019-02-28T22:57:15.425Z,10.23
2019-02-28T22:59:45.219Z,9.23
2019-02-28T23:02:15.013Z,8.40
2019-02-28T23:04:44.649Z,9.50
2019-02-28T23:07:14.268Z,9.70
2019-02-28T23:09:43.895Z,9.20
2019-02-28T23:12:13.501Z,9.20
2019-02-28T23:14:43.180Z,9.80
2019-02-28T23:17:12.787Z,10.27
2019-02-28T23:19:42.473Z,11.00
2019-02-28T23:22:12.104Z,11.20
2019-02-28T23:24:41.716Z,11.53
2019-02-28T23:27:13.343Z,11.33
2019-02-28T23:29:51.670Z,11.63
2019-02-28T23:32:40.100Z,11.50
2019-02-28T23:35:14.503Z,11.63
2019-02-28T23:37:44.440Z,11.73
2019-02-28T23:40:14.328Z,11.97
2019-02-28T23:42:43.933Z,13.00
2019-02-28T23:45:13.703Z,12.03
2019-02-28T23:47:43.412Z,12.93
2019-02-28T23:50:13.208Z,12.57
2019-02-28T23:52:42.846Z,13.70
2019-02-28T23:55:12.105Z,12.80
2019-02-28T23:57:41.199Z,12.77
